Time;durP1;ratioP1;P1;durP2;ratioP2;P2;SDS_P1;SDS_P2;PMS_P1;PMS_P2;Temp;Humidity;BMP_temperature;BMP_pressure;BME280_temperature;BME280_humidity;BME280_pressure;Samples;Min_cycle;Max_cycle;Signal;HPM_P1;HPM_P2
2023/08/11 00:01:00;;;;;;;5.55;4.18;;;;;;;;;;5116370;28;20035;-84
2023/08/11 00:03:25;;;;;;;4.90;3.95;;;;;;;;;;5116072;28;20105;-84
2023/08/11 00:05:53;;;;;;;9.68;3.90;;;;;;;;;;5115542;28;20114;-84
2023/08/11 00:08:18;;;;;;;7.18;4.60;;;;;;;;;;5082330;28;20036;-84
2023/08/11 00:10:43;;;;;;;5.65;4.13;;;;;;;;;;5098930;28;20038;-84
2023/08/11 00:13:12;;;;;;;5.72;4.10;;;;;;;;;;5115975;28;20110;-84
2023/08/11 00:15:39;;;;;;;8.15;4.20;;;;;;;;;;5099529;28;20368;-84
2023/08/11 00:18:05;;;;;;;6.93;4.10;;;;;;;;;;5116003;28;20043;-84
2023/08/11 00:20:30;;;;;;;5.93;4.20;;;;;;;;;;5098706;28;20024;-84
2023/08/11 00:22:56;;;;;;;5.70;3.92;;;;;;;;;;5115707;28;20139;-84
2023/08/11 00:25:22;;;;;;;5.32;4.18;;;;;;;;;;5098667;28;20196;-84
2023/08/11 00:27:47;;;;;;;8.82;4.45;;;;;;;;;;5081784;28;20104;-84
2023/08/11 00:30:13;;;;;;;5.50;4.03;;;;;;;;;;5098443;28;20131;-85
2023/08/11 00:32:38;;;;;;;8.45;4.50;;;;;;;;;;5098845;28;20031;-84
2023/08/11 00:35:05;;;;;;;8.38;4.25;;;;;;;;;;5081640;28;20027;-84
2023/08/11 00:37:31;;;;;;;4.43;4.03;;;;;;;;;;5115691;28;20019;-84
2023/08/11 00:39:56;;;;;;;5.35;4.07;;;;;;;;;;5098334;28;20459;-84
2023/08/11 00:42:21;;;;;;;6.28;4.00;;;;;;;;;;5116466;28;20023;-84
2023/08/11 00:44:47;;;;;;;9.90;4.10;;;;;;;;;;5098185;28;20038;-85
2023/08/11 00:47:12;;;;;;;6.68;4.20;;;;;;;;;;5097809;28;20130;-84
2023/08/11 00:49:38;;;;;;;6.63;4.00;;;;;;;;;;5081025;28;20035;-84
2023/08/11 00:52:03;;;;;;;9.63;4.30;;;;;;;;;;5115261;28;20140;-84
2023/08/11 00:54:30;;;;;;;6.03;3.90;;;;;;;;;;5081158;28;20024;-84
2023/08/11 00:56:56;;;;;;;5.50;4.22;;;;;;;;;;5081564;28;20023;-84
2023/08/11 00:59:21;;;;;;;8.90;4.32;;;;;;;;;;5081142;28;20468;-84
2023/08/11 01:01:50;;;;;;;9.40;4.07;;;;;;;;;;5098428;28;20031;-84
2023/08/11 01:04:15;;;;;;;6.57;3.83;;;;;;;;;;5098137;28;20023;-82
2023/08/11 01:06:46;;;;;;;3.97;3.20;;;;;;;;;;5114755;28;20019;-83
2023/08/11 01:09:41;;;;;;;17.42;3.92;;;;;;;;;;5115945;28;20046;-84
2023/08/11 01:12:39;;;;;;;4.75;4.00;;;;;;;;;;5099947;28;20484;-84
2023/08/11 01:15:12;;;;;;;4.38;3.78;;;;;;;;;;5114771;28;20176;-84
2023/08/11 01:17:39;;;;;;;10.65;4.05;;;;;;;;;;5097954;28;20031;-84
2023/08/11 01:20:10;;;;;;;4.70;3.92;;;;;;;;;;5080997;28;20391;-84
2023/08/11 01:22:35;;;;;;;5.93;4.20;;;;;;;;;;5114529;28;20437;-83
2023/08/11 01:25:01;;;;;;;5.25;3.85;;;;;;;;;;5097649;28;20028;-84
2023/08/11 01:27:28;;;;;;;5.75;3.75;;;;;;;;;;5114170;28;20040;-83
2023/08/11 01:29:53;;;;;;;5.65;3.63;;;;;;;;;;5097476;28;20522;-84
2023/08/11 01:32:19;;;;;;;4.25;3.78;;;;;;;;;;5114123;28;20033;-84
2023/08/11 01:34:44;;;;;;;6.45;3.85;;;;;;;;;;5097517;28;20155;-84
2023/08/11 01:37:10;;;;;;;6.60;4.15;;;;;;;;;;5114710;28;20024;-84
2023/08/11 01:39:35;;;;;;;9.45;3.88;;;;;;;;;;5115394;28;20031;-84
2023/08/11 01:42:01;;;;;;;7.28;4.20;;;;;;;;;;5114323;28;20389;-84
2023/08/11 01:44:27;;;;;;;7.30;4.00;;;;;;;;;;5113626;28;20449;-83
2023/08/11 01:46:54;;;;;;;4.00;3.67;;;;;;;;;;5096922;28;20035;-84
2023/08/11 01:49:21;;;;;;;7.78;4.07;;;;;;;;;;5097147;28;20495;-84
2023/08/11 01:51:47;;;;;;;11.88;4.20;;;;;;;;;;5097281;28;20106;-83
2023/08/11 01:54:12;;;;;;;7.10;4.50;;;;;;;;;;5080273;28;20460;-84
2023/08/11 01:56:38;;;;;;;14.15;4.05;;;;;;;;;;5080224;28;20024;-84
2023/08/11 01:59:04;;;;;;;4.55;3.67;;;;;;;;;;5080169;28;20031;-84
2023/08/11 02:01:30;;;;;;;4.90;3.83;;;;;;;;;;5114250;28;20046;-84
2023/08/11 02:03:55;;;;;;;8.15;3.95;;;;;;;;;;5096652;28;20452;-84
2023/08/11 02:06:21;;;;;;;4.85;3.90;;;;;;;;;;5080121;28;20020;-84
2023/08/11 02:08:47;;;;;;;6.28;3.90;;;;;;;;;;5113693;28;20028;-84
2023/08/11 02:11:13;;;;;;;5.60;4.25;;;;;;;;;;5080047;28;20043;-84
2023/08/11 02:13:39;;;;;;;6.85;4.25;;;;;;;;;;5097421;28;20047;-84
2023/08/11 02:16:04;;;;;;;5.35;4.25;;;;;;;;;;5080418;28;20479;-84
2023/08/11 02:18:30;;;;;;;7.13;4.13;;;;;;;;;;5096627;28;20023;-84
2023/08/11 02:20:56;;;;;;;8.27;4.05;;;;;;;;;;5113539;28;20220;-84
2023/08/11 02:23:21;;;;;;;4.65;4.18;;;;;;;;;;5114924;28;20026;-84
2023/08/11 02:25:47;;;;;;;12.75;4.25;;;;;;;;;;5096513;28;20380;-84
2023/08/11 02:28:12;;;;;;;6.07;4.13;;;;;;;;;;5113664;28;20044;-84
2023/08/11 02:30:41;;;;;;;4.63;4.07;;;;;;;;;;5113157;28;20110;-84
2023/08/11 02:33:06;;;;;;;7.97;3.83;;;;;;;;;;5096878;28;20023;-84
2023/08/11 02:35:32;;;;;;;6.13;4.07;;;;;;;;;;5079934;28;20028;-84
2023/08/11 02:37:58;;;;;;;9.85;4.30;;;;;;;;;;5097055;28;20031;-83
2023/08/11 02:40:24;;;;;;;6.13;4.05;;;;;;;;;;5113431;28;20507;-83
2023/08/11 02:42:52;;;;;;;5.15;3.78;;;;;;;;;;5079519;28;20059;-84
2023/08/11 02:45:18;;;;;;;7.88;4.28;;;;;;;;;;5096200;28;20491;-84
2023/08/11 02:47:44;;;;;;;6.05;4.28;;;;;;;;;;5113239;28;20059;-84
2023/08/11 02:50:10;;;;;;;5.15;4.45;;;;;;;;;;5113604;28;20015;-84
2023/08/11 02:52:36;;;;;;;5.78;4.07;;;;;;;;;;5113565;28;20031;-83
2023/08/11 02:55:05;;;;;;;6.82;4.75;;;;;;;;;;5079816;28;20081;-84
2023/08/11 02:57:31;;;;;;;11.93;4.72;;;;;;;;;;5113417;28;20039;-84
2023/08/11 02:59:56;;;;;;;5.57;4.65;;;;;;;;;;5095988;28;20460;-84
2023/08/11 03:02:24;;;;;;;4.55;4.10;;;;;;;;;;5113001;28;20020;-84
2023/08/11 03:04:50;;;;;;;10.57;4.25;;;;;;;;;;5113472;28;20028;-84
2023/08/11 03:07:16;;;;;;;5.50;4.60;;;;;;;;;;5096432;28;20100;-83
2023/08/11 03:09:42;;;;;;;7.07;3.92;;;;;;;;;;5096351;28;20051;-84
2023/08/11 03:12:08;;;;;;;5.55;4.30;;;;;;;;;;5100105;28;20080;-84
2023/08/11 03:14:35;;;;;;;6.65;3.97;;;;;;;;;;5099916;28;20088;-84
2023/08/11 03:17:00;;;;;;;7.07;4.20;;;;;;;;;;5083611;28;20032;-83
2023/08/11 03:19:26;;;;;;;4.53;3.58;;;;;;;;;;5082906;28;20044;-84
2023/08/11 03:21:52;;;;;;;9.27;4.28;;;;;;;;;;5082890;28;20032;-84
2023/08/11 03:24:18;;;;;;;7.38;3.80;;;;;;;;;;5099957;28;20425;-84
2023/08/11 03:26:43;;;;;;;5.78;4.00;;;;;;;;;;5116740;28;20039;-83
2023/08/11 03:29:27;;;;;;;8.15;4.10;;;;;;;;;;5116257;28;20039;-83
2023/08/11 03:31:53;;;;;;;7.25;3.78;;;;;;;;;;5116834;28;20038;-83
2023/08/11 03:34:18;;;;;;;6.60;3.97;;;;;;;;;;5082964;28;20381;-84
2023/08/11 03:36:47;;;;;;;5.13;3.42;;;;;;;;;;5099860;28;20019;-83
2023/08/11 03:39:12;;;;;;;5.00;3.47;;;;;;;;;;5116651;28;20110;-84
2023/08/11 03:41:37;;;;;;;7.40;3.53;;;;;;;;;;5082938;28;20123;-83
2023/08/11 03:44:03;;;;;;;4.97;3.60;;;;;;;;;;5082536;28;20113;-83
2023/08/11 03:46:28;;;;;;;7.20;3.50;;;;;;;;;;5116686;28;20508;-84
2023/08/11 03:48:54;;;;;;;5.20;3.90;;;;;;;;;;5117904;28;20036;-83
2023/08/11 03:51:19;;;;;;;5.63;4.07;;;;;;;;;;5118011;28;20027;-83
2023/08/11 03:53:45;;;;;;;6.07;3.78;;;;;;;;;;5119466;28;20031;-83
2023/08/11 03:56:10;;;;;;;7.78;3.75;;;;;;;;;;5117435;28;20034;-82
2023/08/11 03:58:37;;;;;;;7.13;3.75;;;;;;;;;;5102112;28;20032;-81
2023/08/11 04:01:03;;;;;;;6.75;3.80;;;;;;;;;;5084055;28;20027;-83
2023/08/11 04:03:30;;;;;;;7.03;4.18;;;;;;;;;;5082759;28;20472;-83
2023/08/11 04:05:58;;;;;;;4.75;3.88;;;;;;;;;;5116462;28;20483;-83
2023/08/11 04:08:25;;;;;;;7.80;4.47;;;;;;;;;;5117110;28;20061;-83
2023/08/11 04:10:50;;;;;;;6.50;4.30;;;;;;;;;;5117155;28;20024;-83
2023/08/11 04:13:15;;;;;;;9.10;4.47;;;;;;;;;;5098815;28;20023;-83
2023/08/11 04:15:41;;;;;;;7.53;4.50;;;;;;;;;;5098605;28;20031;-82
2023/08/11 04:18:06;;;;;;;7.93;4.88;;;;;;;;;;5099231;28;20057;-83
2023/08/11 04:20:33;;;;;;;11.63;4.63;;;;;;;;;;5098797;28;20436;-83
2023/08/11 04:22:58;;;;;;;7.18;4.95;;;;;;;;;;5115600;28;20023;-82
2023/08/11 04:25:24;;;;;;;7.22;4.75;;;;;;;;;;5115699;28;20031;-83
2023/08/11 04:27:49;;;;;;;11.77;4.45;;;;;;;;;;5081251;28;20108;-83
2023/08/11 04:30:15;;;;;;;8.98;4.30;;;;;;;;;;5115518;28;20028;-83
2023/08/11 04:32:40;;;;;;;6.63;4.18;;;;;;;;;;5098977;28;20026;-83
2023/08/11 04:35:08;;;;;;;6.63;3.90;;;;;;;;;;5081762;28;20528;-84
2023/08/11 04:37:34;;;;;;;6.68;3.63;;;;;;;;;;5115765;28;20118;-84
2023/08/11 04:39:59;;;;;;;9.05;3.40;;;;;;;;;;5115379;28;20062;-84
2023/08/11 04:42:25;;;;;;;3.35;3.05;;;;;;;;;;5098082;28;20129;-84
2023/08/11 04:44:50;;;;;;;4.00;3.40;;;;;;;;;;5081696;28;20032;-83
2023/08/11 04:47:15;;;;;;;3.50;3.20;;;;;;;;;;5098952;28;20085;-83
2023/08/11 04:49:42;;;;;;;3.05;2.85;;;;;;;;;;5098627;28;20031;-83
2023/08/11 04:52:08;;;;;;;5.70;3.38;;;;;;;;;;5115177;28;20054;-84
2023/08/11 04:54:33;;;;;;;7.10;3.63;;;;;;;;;;5098320;28;20023;-83
2023/08/11 04:56:59;;;;;;;10.00;3.25;;;;;;;;;;5115078;28;20027;-85
2023/08/11 04:59:24;;;;;;;4.90;3.17;;;;;;;;;;5097950;28;20027;-84
2023/08/11 05:01:50;;;;;;;6.32;3.10;;;;;;;;;;5098086;28;20356;-84
2023/08/11 05:04:15;;;;;;;6.05;3.20;;;;;;;;;;5115086;28;20212;-84
2023/08/11 05:06:41;;;;;;;5.07;3.25;;;;;;;;;;5098196;28;20023;-83
2023/08/11 05:09:06;;;;;;;3.33;3.03;;;;;;;;;;5115399;28;20024;-83
2023/08/11 05:11:32;;;;;;;7.78;3.47;;;;;;;;;;5081859;28;20030;-83
2023/08/11 05:13:57;;;;;;;6.57;3.05;;;;;;;;;;5101688;28;20024;-83
2023/08/11 05:16:24;;;;;;;5.75;3.65;;;;;;;;;;5087424;28;20019;-83
2023/08/11 05:18:49;;;;;;;3.45;2.85;;;;;;;;;;5129927;28;20010;-83
2023/08/11 05:21:16;;;;;;;7.85;3.60;;;;;;;;;;5110401;28;20059;-83
2023/08/11 05:23:41;;;;;;;5.40;3.05;;;;;;;;;;5110756;28;20076;-83
2023/08/11 05:26:07;;;;;;;6.60;3.42;;;;;;;;;;5110318;28;20110;-83
2023/08/11 05:28:32;;;;;;;7.15;3.42;;;;;;;;;;5124010;28;20048;-83
2023/08/11 05:30:58;;;;;;;4.35;3.53;;;;;;;;;;5115991;28;20028;-83
2023/08/11 05:33:24;;;;;;;10.80;3.78;;;;;;;;;;5113855;28;20484;-83
2023/08/11 05:35:50;;;;;;;7.35;3.20;;;;;;;;;;5115743;28;20023;-83
2023/08/11 05:38:19;;;;;;;4.80;3.10;;;;;;;;;;5097124;28;20476;-83
2023/08/11 05:40:45;;;;;;;12.33;7.27;;;;;;;;;;5097696;28;20063;-83
2023/08/11 05:43:10;;;;;;;8.57;3.30;;;;;;;;;;5080749;28;20051;-83
2023/08/11 05:45:36;;;;;;;24.77;3.90;;;;;;;;;;5114489;28;20023;-83
2023/08/11 05:48:01;;;;;;;8.32;3.97;;;;;;;;;;5097330;28;20039;-84
2023/08/11 05:50:26;;;;;;;3.58;3.00;;;;;;;;;;5114395;28;20076;-84
2023/08/11 05:52:52;;;;;;;18.35;3.63;;;;;;;;;;5096837;28;20035;-84
2023/08/11 05:55:18;;;;;;;7.75;3.00;;;;;;;;;;5115641;28;20030;-84
2023/08/11 05:57:43;;;;;;;6.75;2.97;;;;;;;;;;5115570;28;20023;-84
2023/08/11 06:00:09;;;;;;;11.07;3.20;;;;;;;;;;5097406;28;20478;-84
2023/08/11 06:02:34;;;;;;;6.13;2.60;;;;;;;;;;5097641;28;20380;-84
2023/08/11 06:05:00;;;;;;;9.45;6.00;;;;;;;;;;5096942;28;20464;-83
2023/08/11 06:07:25;;;;;;;5.30;3.08;;;;;;;;;;5097090;28;20456;-84
2023/08/11 06:09:51;;;;;;;6.05;3.13;;;;;;;;;;5114250;28;20467;-83
2023/08/11 06:12:18;;;;;;;9.05;3.15;;;;;;;;;;5097203;28;20035;-83
2023/08/11 06:14:44;;;;;;;14.55;3.00;;;;;;;;;;5115752;28;20081;-82
2023/08/11 06:17:09;;;;;;;6.65;3.10;;;;;;;;;;5115367;28;20027;-83
2023/08/11 06:19:34;;;;;;;4.30;3.08;;;;;;;;;;5097368;28;20042;-82
2023/08/11 06:22:00;;;;;;;5.15;2.80;;;;;;;;;;5079731;28;20024;-83
2023/08/11 06:24:25;;;;;;;4.70;3.10;;;;;;;;;;5114039;28;20023;-83
2023/08/11 06:26:53;;;;;;;8.48;3.05;;;;;;;;;;5080341;28;20024;-83
2023/08/11 06:29:19;;;;;;;4.72;2.97;;;;;;;;;;5114135;28;20142;-83
2023/08/11 06:31:45;;;;;;;6.97;3.35;;;;;;;;;;5096977;28;20456;-84
2023/08/11 06:34:10;;;;;;;6.78;3.28;;;;;;;;;;5115372;28;20016;-83
2023/08/11 06:36:36;;;;;;;6.07;3.15;;;;;;;;;;5113101;28;20037;-83
2023/08/11 06:39:01;;;;;;;4.28;3.17;;;;;;;;;;5094167;28;20039;-83
2023/08/11 06:41:27;;;;;;;4.22;3.15;;;;;;;;;;5092296;28;20035;-84
2023/08/11 06:43:53;;;;;;;6.90;3.65;;;;;;;;;;5111366;28;20024;-83
2023/08/11 06:46:19;;;;;;;5.97;2.75;;;;;;;;;;5100747;28;20157;-83
2023/08/11 06:48:44;;;;;;;5.30;2.95;;;;;;;;;;5100573;28;20122;-85
2023/08/11 06:51:10;;;;;;;6.45;3.08;;;;;;;;;;5100441;28;20024;-84
2023/08/11 06:53:35;;;;;;;8.75;3.70;;;;;;;;;;5100333;28;20028;-85
2023/08/11 06:56:00;;;;;;;7.20;3.70;;;;;;;;;;5100073;28;20032;-85
2023/08/11 06:58:26;;;;;;;5.63;3.60;;;;;;;;;;5100289;28;20047;-85
2023/08/11 07:00:51;;;;;;;7.15;3.50;;;;;;;;;;5100448;28;20028;-87
2023/08/11 07:03:17;;;;;;;8.82;3.58;;;;;;;;;;5083294;28;20119;-85
2023/08/11 07:05:43;;;;;;;5.78;3.63;;;;;;;;;;5117106;28;20024;-85
2023/08/11 07:08:09;;;;;;;8.27;4.22;;;;;;;;;;5099052;28;20165;-82
2023/08/11 07:10:34;;;;;;;11.50;6.75;;;;;;;;;;5083497;28;20099;-85
2023/08/11 07:13:00;;;;;;;5.47;3.55;;;;;;;;;;5100248;28;20096;-85
2023/08/11 07:15:25;;;;;;;8.40;3.90;;;;;;;;;;5099133;28;20028;-85
2023/08/11 07:17:50;;;;;;;8.98;3.78;;;;;;;;;;5099409;28;20517;-84
2023/08/11 07:20:16;;;;;;;8.75;3.80;;;;;;;;;;5082340;28;20031;-85
2023/08/11 07:22:41;;;;;;;7.63;3.92;;;;;;;;;;5116740;28;20349;-85
2023/08/11 07:25:07;;;;;;;8.90;4.40;;;;;;;;;;5116730;28;20023;-82
2023/08/11 07:27:32;;;;;;;7.70;5.07;;;;;;;;;;5099655;28;20100;-84
2023/08/11 07:29:58;;;;;;;14.13;9.63;;;;;;;;;;5099568;28;20107;-83
2023/08/11 07:32:23;;;;;;;9.90;4.75;;;;;;;;;;5116547;28;20019;-83
2023/08/11 07:34:49;;;;;;;8.85;4.07;;;;;;;;;;5099540;28;20028;-83
2023/08/11 07:37:15;;;;;;;9.60;4.38;;;;;;;;;;5116546;28;20100;-83
2023/08/11 07:39:40;;;;;;;6.45;4.70;;;;;;;;;;5099932;28;20031;-83
2023/08/11 07:42:06;;;;;;;8.90;4.43;;;;;;;;;;5082954;28;20087;-83
2023/08/11 07:44:32;;;;;;;8.20;3.90;;;;;;;;;;5082308;28;20448;-83
2023/08/11 07:46:58;;;;;;;9.27;4.00;;;;;;;;;;5099283;28;20032;-83
2023/08/11 07:49:27;;;;;;;6.00;4.22;;;;;;;;;;5081972;28;20035;-83
2023/08/11 07:51:52;;;;;;;7.65;4.40;;;;;;;;;;5116329;28;20042;-83
2023/08/11 07:54:18;;;;;;;12.80;4.60;;;;;;;;;;5099059;28;20031;-84
2023/08/11 07:56:46;;;;;;;8.75;4.65;;;;;;;;;;5098313;28;20028;-85
2023/08/11 07:59:12;;;;;;;7.00;4.15;;;;;;;;;;5099529;28;20081;-84
2023/08/11 08:01:37;;;;;;;5.75;4.07;;;;;;;;;;5082439;28;20407;-84
2023/08/11 08:04:03;;;;;;;11.32;4.50;;;;;;;;;;5081999;28;20118;-84
2023/08/11 08:06:30;;;;;;;14.35;4.53;;;;;;;;;;5115847;28;20727;-84
2023/08/11 08:08:56;;;;;;;7.32;4.30;;;;;;;;;;5116214;28;20081;-84
2023/08/11 08:11:21;;;;;;;6.82;4.63;;;;;;;;;;5116529;28;20020;-84
2023/08/11 08:13:47;;;;;;;7.18;4.53;;;;;;;;;;5099146;28;20418;-84
2023/08/11 08:16:12;;;;;;;10.20;4.47;;;;;;;;;;5099031;28;20027;-85
2023/08/11 08:18:37;;;;;;;9.57;6.10;;;;;;;;;;5115668;28;20435;-86
2023/08/11 08:21:03;;;;;;;8.77;5.20;;;;;;;;;;5119293;28;20027;-92
2023/08/11 08:23:28;;;;;;;8.23;4.65;;;;;;;;;;5101359;28;20020;-90
2023/08/11 08:25:54;;;;;;;7.63;5.00;;;;;;;;;;5116049;28;20028;-84
2023/08/11 08:28:20;;;;;;;9.13;6.00;;;;;;;;;;5116201;28;20039;-86
2023/08/11 08:30:46;;;;;;;8.40;4.85;;;;;;;;;;5099672;28;20027;-83
2023/08/11 08:33:11;;;;;;;10.25;5.25;;;;;;;;;;5098804;28;20034;-82
2023/08/11 08:35:42;;;;;;;7.85;4.43;;;;;;;;;;5115818;28;20053;-89
2023/08/11 08:38:07;;;;;;;11.05;5.00;;;;;;;;;;5119434;28;20024;-89
2023/08/11 08:40:34;;;;;;;9.82;4.88;;;;;;;;;;5151396;27;20081;-82
2023/08/11 08:42:59;;;;;;;18.98;4.88;;;;;;;;;;5116229;28;20384;-81
2023/08/11 08:45:25;;;;;;;9.45;4.60;;;;;;;;;;5116726;28;20032;-84
2023/08/11 08:47:52;;;;;;;14.35;5.45;;;;;;;;;;5081912;28;20053;-85
2023/08/11 08:50:18;;;;;;;10.20;5.20;;;;;;;;;;5116112;28;20173;-84
2023/08/11 08:52:43;;;;;;;9.25;5.10;;;;;;;;;;5115570;28;20089;-85
2023/08/11 08:55:09;;;;;;;8.60;5.15;;;;;;;;;;5098545;28;20080;-82
2023/08/11 08:57:35;;;;;;;16.42;5.35;;;;;;;;;;5114831;28;20038;-82
2023/08/11 09:00:00;;;;;;;7.07;4.80;;;;;;;;;;5115111;28;20118;-81
2023/08/11 09:02:29;;;;;;;5.88;4.43;;;;;;;;;;5097726;28;20028;-84
2023/08/11 09:04:55;;;;;;;7.43;5.15;;;;;;;;;;5082117;28;20118;-84
2023/08/11 09:07:20;;;;;;;8.73;5.05;;;;;;;;;;5080955;28;20118;-83
2023/08/11 09:09:46;;;;;;;10.30;5.00;;;;;;;;;;5114487;28;20073;-82
2023/08/11 09:12:12;;;;;;;11.98;7.53;;;;;;;;;;5115313;28;20031;-81
2023/08/11 09:14:40;;;;;;;11.88;5.25;;;;;;;;;;5114847;28;20527;-85
2023/08/11 09:17:06;;;;;;;14.85;5.70;;;;;;;;;;5114375;28;20123;-84
2023/08/11 09:19:32;;;;;;;10.68;5.05;;;;;;;;;;5097667;28;20126;-80
2023/08/11 09:21:57;;;;;;;9.10;4.85;;;;;;;;;;5148917;27;20033;-80
2023/08/11 09:24:23;;;;;;;8.23;4.50;;;;;;;;;;5097080;28;20119;-80
2023/08/11 09:26:51;;;;;;;8.57;4.95;;;;;;;;;;5114392;28;20023;-82
2023/08/11 09:29:17;;;;;;;10.77;4.88;;;;;;;;;;5114314;28;20051;-85
2023/08/11 09:31:49;;;;;;;8.15;4.60;;;;;;;;;;5080465;28;20028;-84
2023/08/11 09:34:18;;;;;;;11.82;5.53;;;;;;;;;;5097896;28;20019;-84
2023/08/11 09:36:44;;;;;;;9.25;4.85;;;;;;;;;;5098232;28;20027;-89
2023/08/11 09:39:10;;;;;;;13.38;5.00;;;;;;;;;;5097726;28;20028;-85
2023/08/11 09:41:45;;;;;;;9.40;5.18;;;;;;;;;;5081091;28;20038;-83
2023/08/11 09:44:11;;;;;;;7.10;4.47;;;;;;;;;;5114405;28;20057;-83
2023/08/11 09:46:38;;;;;;;8.55;4.57;;;;;;;;;;5096977;28;20020;-84
2023/08/11 09:49:04;;;;;;;8.25;4.72;;;;;;;;;;5097242;28;20181;-84
2023/08/11 09:51:29;;;;;;;8.20;4.82;;;;;;;;;;5113796;28;20031;-82
2023/08/11 09:53:55;;;;;;;12.23;4.95;;;;;;;;;;5080987;28;20392;-87
2023/08/11 09:56:20;;;;;;;6.93;4.97;;;;;;;;;;5080224;28;20461;-85
2023/08/11 09:58:46;;;;;;;8.05;5.43;;;;;;;;;;5113847;28;20019;-86
2023/08/11 10:01:11;;;;;;;7.20;5.03;;;;;;;;;;5113575;28;20066;-85
2023/08/11 10:03:41;;;;;;;7.20;5.25;;;;;;;;;;5096721;28;20026;-83
2023/08/11 10:06:06;;;;;;;8.93;5.00;;;;;;;;;;5113747;28;20028;-83
2023/08/11 10:08:32;;;;;;;11.70;4.88;;;;;;;;;;5096825;28;20024;-83
2023/08/11 10:10:57;;;;;;;10.65;5.25;;;;;;;;;;5096743;28;20382;-84
2023/08/11 10:13:23;;;;;;;7.93;5.32;;;;;;;;;;5079987;28;20027;-84
2023/08/11 10:15:50;;;;;;;10.02;5.25;;;;;;;;;;5113269;28;20076;-84
2023/08/11 10:18:16;;;;;;;11.40;5.25;;;;;;;;;;5096699;28;20345;-84
2023/08/11 10:20:41;;;;;;;9.90;4.82;;;;;;;;;;5113074;28;20088;-85
2023/08/11 10:23:07;;;;;;;12.70;5.20;;;;;;;;;;5079520;28;20357;-84
2023/08/11 10:25:33;;;;;;;9.05;5.38;;;;;;;;;;5079767;28;20035;-84
2023/08/11 10:27:58;;;;;;;8.43;5.47;;;;;;;;;;5096262;28;20479;-83
2023/08/11 10:30:25;;;;;;;13.75;5.25;;;;;;;;;;5096996;28;20055;-84
2023/08/11 10:32:56;;;;;;;9.45;5.20;;;;;;;;;;5096458;28;20036;-83
2023/08/11 10:35:26;;;;;;;9.27;5.57;;;;;;;;;;5097201;28;20028;-83
2023/08/11 10:37:58;;;;;;;17.23;5.10;;;;;;;;;;5114535;28;20023;-83
2023/08/11 10:40:23;;;;;;;10.85;5.13;;;;;;;;;;5117409;28;20030;-84
2023/08/11 10:42:50;;;;;;;8.30;5.40;;;;;;;;;;5107008;28;20063;-84
2023/08/11 10:45:16;;;;;;;9.30;5.57;;;;;;;;;;5119226;28;20436;-84
2023/08/11 10:47:54;;;;;;;11.27;5.38;;;;;;;;;;5106897;28;20027;-83
2023/08/11 10:50:20;;;;;;;12.70;5.80;;;;;;;;;;5088644;28;20482;-83
2023/08/11 10:52:46;;;;;;;10.30;5.75;;;;;;;;;;5113476;28;20031;-83
2023/08/11 10:55:13;;;;;;;19.42;5.90;;;;;;;;;;5079586;28;20039;-83
2023/08/11 10:57:39;;;;;;;9.27;5.32;;;;;;;;;;5096332;28;20122;-83
2023/08/11 11:00:05;;;;;;;10.82;5.72;;;;;;;;;;5113378;28;20156;-82
2023/08/11 11:02:33;;;;;;;11.45;5.72;;;;;;;;;;5096484;28;20096;-84
2023/08/11 11:04:58;;;;;;;16.58;5.22;;;;;;;;;;5079883;28;20460;-83
2023/08/11 11:07:24;;;;;;;9.63;5.55;;;;;;;;;;5096480;28;20028;-82
2023/08/11 11:09:50;;;;;;;11.68;6.07;;;;;;;;;;5096256;28;20100;-83
2023/08/11 11:12:15;;;;;;;14.93;5.43;;;;;;;;;;5096043;28;20023;-83
2023/08/11 11:14:41;;;;;;;9.68;5.45;;;;;;;;;;5113060;28;20088;-82
2023/08/11 11:17:07;;;;;;;9.68;5.70;;;;;;;;;;5113345;28;20032;-83
2023/08/11 11:19:33;;;;;;;15.15;5.82;;;;;;;;;;5112812;28;20031;-83
2023/08/11 11:21:59;;;;;;;13.95;5.93;;;;;;;;;;5114318;28;20372;-83
2023/08/11 11:24:25;;;;;;;10.15;6.07;;;;;;;;;;5095811;28;20432;-84
2023/08/11 11:26:51;;;;;;;30.42;5.78;;;;;;;;;;5113945;28;20027;-83
2023/08/11 11:29:23;;;;;;;11.82;5.88;;;;;;;;;;5114229;28;20062;-83
2023/08/11 11:31:48;;;;;;;9.25;5.65;;;;;;;;;;5114799;28;20652;-83
2023/08/11 11:34:14;;;;;;;11.68;5.50;;;;;;;;;;5099692;28;20031;-83
2023/08/11 11:40:06;;;;;;;11.20;6.22;;;;;;;;;;5117631;28;20085;-83
2023/08/11 11:42:36;;;;;;;13.35;5.55;;;;;;;;;;5116476;28;20081;-82
2023/08/11 11:45:02;;;;;;;14.60;5.50;;;;;;;;;;5117518;28;20385;-83
2023/08/11 11:47:27;;;;;;;17.60;6.20;;;;;;;;;;5116754;28;20081;-83
2023/08/11 11:49:57;;;;;;;11.68;5.72;;;;;;;;;;5099365;28;20092;-84
2023/08/11 11:52:24;;;;;;;10.55;5.80;;;;;;;;;;5083232;28;20030;-83
2023/08/11 11:54:54;;;;;;;11.23;5.70;;;;;;;;;;5083541;28;20089;-82
2023/08/11 11:57:20;;;;;;;9.63;5.63;;;;;;;;;;5099341;28;20031;-83
2023/08/11 11:59:46;;;;;;;13.70;5.72;;;;;;;;;;5099240;28;20077;-83
2023/08/11 12:02:12;;;;;;;10.73;5.78;;;;;;;;;;5099310;28;20047;-83
2023/08/11 12:04:39;;;;;;;18.02;6.20;;;;;;;;;;5116371;28;20023;-84
2023/08/11 12:07:07;;;;;;;11.23;6.05;;;;;;;;;;5115980;28;20028;-83
2023/08/11 12:09:33;;;;;;;10.00;6.15;;;;;;;;;;5116070;28;20023;-84
2023/08/11 12:11:58;;;;;;;12.27;6.28;;;;;;;;;;5098630;28;20425;-83
2023/08/11 12:14:27;;;;;;;13.43;6.10;;;;;;;;;;5098784;28;20063;-83
2023/08/11 12:16:52;;;;;;;10.02;6.47;;;;;;;;;;5099044;28;20023;-83
2023/08/11 12:19:18;;;;;;;12.63;6.50;;;;;;;;;;5098814;28;20035;-83
2023/08/11 12:21:43;;;;;;;11.43;6.15;;;;;;;;;;5081852;28;20034;-82
2023/08/11 12:24:12;;;;;;;11.48;5.95;;;;;;;;;;5115415;28;20034;-83
2023/08/11 12:26:38;;;;;;;11.90;6.33;;;;;;;;;;5098599;28;20402;-82
2023/08/11 12:29:05;;;;;;;11.00;5.82;;;;;;;;;;5098467;28;20292;-82
2023/08/11 12:31:30;;;;;;;14.60;6.28;;;;;;;;;;5098794;28;20028;-83
2023/08/11 12:33:56;;;;;;;11.77;5.57;;;;;;;;;;5115518;28;20030;-83
2023/08/11 12:36:21;;;;;;;13.93;6.57;;;;;;;;;;5115591;28;20122;-83
2023/08/11 12:38:48;;;;;;;12.30;6.43;;;;;;;;;;5081050;28;20035;-83
2023/08/11 12:41:13;;;;;;;12.45;6.13;;;;;;;;;;5116748;27;20433;-83
2023/08/11 12:43:39;;;;;;;10.98;5.88;;;;;;;;;;5115025;28;20034;-82
2023/08/11 12:46:04;;;;;;;12.63;6.18;;;;;;;;;;5116385;28;20063;-83
2023/08/11 12:48:30;;;;;;;13.02;6.15;;;;;;;;;;5115365;28;20072;-83
2023/08/11 12:50:56;;;;;;;11.02;6.00;;;;;;;;;;5081899;28;20031;-83
2023/08/11 12:53:21;;;;;;;11.82;5.82;;;;;;;;;;5097590;28;20031;-83
2023/08/11 12:55:46;;;;;;;9.35;6.00;;;;;;;;;;5080919;28;20040;-83
2023/08/11 12:58:12;;;;;;;10.77;6.05;;;;;;;;;;5097844;28;20080;-83
2023/08/11 13:00:38;;;;;;;11.57;5.95;;;;;;;;;;5114998;28;20039;-83
2023/08/11 13:03:03;;;;;;;10.05;6.40;;;;;;;;;;5116394;28;20024;-83
2023/08/11 13:05:29;;;;;;;15.20;6.32;;;;;;;;;;5116384;28;20437;-83
2023/08/11 13:07:54;;;;;;;11.00;5.75;;;;;;;;;;5080902;28;20027;-83
2023/08/11 13:10:21;;;;;;;13.45;5.68;;;;;;;;;;5116018;28;20024;-83
2023/08/11 13:12:46;;;;;;;12.18;5.63;;;;;;;;;;5115849;27;20080;-83
2023/08/11 13:15:12;;;;;;;13.73;6.15;;;;;;;;;;5080856;28;20039;-83
2023/08/11 13:17:37;;;;;;;13.35;6.45;;;;;;;;;;5097538;28;20084;-83
2023/08/11 13:20:06;;;;;;;12.00;6.00;;;;;;;;;;5097572;28;20468;-83
2023/08/11 13:22:33;;;;;;;10.07;5.55;;;;;;;;;;5097865;28;20458;-84
2023/08/11 13:24:58;;;;;;;12.95;5.55;;;;;;;;;;5115720;28;20477;-83
2023/08/11 13:27:24;;;;;;;12.90;5.85;;;;;;;;;;5097880;28;20108;-83
2023/08/11 13:29:50;;;;;;;15.10;6.20;;;;;;;;;;5114457;28;20476;-83
2023/08/11 13:32:15;;;;;;;13.73;6.22;;;;;;;;;;5098073;28;20028;-83
2023/08/11 13:34:41;;;;;;;11.40;6.00;;;;;;;;;;5097472;28;20050;-83
2023/08/11 13:37:07;;;;;;;10.02;5.72;;;;;;;;;;5115524;28;20057;-83
2023/08/11 13:39:33;;;;;;;13.18;6.20;;;;;;;;;;5114099;28;20069;-83
2023/08/11 13:41:58;;;;;;;15.02;6.45;;;;;;;;;;5080404;28;20528;-83
2023/08/11 13:44:24;;;;;;;12.32;6.28;;;;;;;;;;5115342;28;20100;-83
2023/08/11 13:46:49;;;;;;;13.15;6.18;;;;;;;;;;5114010;28;20169;-82
2023/08/11 13:49:15;;;;;;;11.25;5.93;;;;;;;;;;5115169;28;20032;-83
2023/08/11 13:51:41;;;;;;;11.52;5.97;;;;;;;;;;5114707;28;20080;-83
2023/08/11 13:54:06;;;;;;;15.98;6.10;;;;;;;;;;5113152;28;20061;-83
2023/08/11 13:56:34;;;;;;;10.50;5.60;;;;;;;;;;5097016;28;20448;-83
2023/08/11 13:59:03;;;;;;;9.07;5.40;;;;;;;;;;5097321;28;20130;-83
2023/08/11 14:01:29;;;;;;;14.00;5.63;;;;;;;;;;5080226;28;20032;-83
2023/08/11 14:03:55;;;;;;;13.00;5.40;;;;;;;;;;5115248;28;20035;-83
2023/08/11 14:06:20;;;;;;;9.25;5.43;;;;;;;;;;5096777;28;20411;-84
2023/08/11 14:08:46;;;;;;;11.80;5.57;;;;;;;;;;5113651;28;20034;-83
2023/08/11 14:11:13;;;;;;;14.60;5.95;;;;;;;;;;5115009;28;20077;-83
2023/08/11 14:13:40;;;;;;;12.35;5.22;;;;;;;;;;5097062;28;20027;-83
2023/08/11 14:16:05;;;;;;;13.63;5.90;;;;;;;;;;5079766;28;20036;-83
2023/08/11 14:18:31;;;;;;;12.63;5.68;;;;;;;;;;5096436;28;20436;-83
2023/08/11 14:20:56;;;;;;;11.18;5.80;;;;;;;;;;5114472;28;20447;-83
2023/08/11 14:23:21;;;;;;;13.85;5.60;;;;;;;;;;5096551;28;20376;-83
2023/08/11 14:25:47;;;;;;;8.98;5.47;;;;;;;;;;5114614;28;20024;-83
2023/08/11 14:28:13;;;;;;;10.38;5.63;;;;;;;;;;5114501;28;20138;-83
2023/08/11 14:30:38;;;;;;;11.23;5.75;;;;;;;;;;5114627;28;20097;-84
2023/08/11 14:33:04;;;;;;;9.73;5.30;;;;;;;;;;5096653;28;20038;-83
2023/08/11 14:35:29;;;;;;;10.75;5.38;;;;;;;;;;5114355;28;20067;-83